Time;durP1;ratioP1;P1;durP2;ratioP2;P2;SDS_P1;SDS_P2;PMS_P1;PMS_P2;Temp;Humidity;BMP_temperature;BMP_pressure;BME280_temperature;BME280_humidity;BME280_pressure;Samples;Min_cycle;Max_cycle;Signal;HPM_P1;HPM_P2
2023/03/30 00:02:29;;;;;;;4.35;3.50;;;;;;;;;;471475;28;917;-77
2023/03/30 00:02:52;;;;;;;4.38;3.38;;;;;;;;;;469729;28;1085;-77
2023/03/30 00:03:18;;;;;;;4.60;3.63;;;;;;;;;;468154;28;1469;-78
2023/03/30 00:03:41;;;;;;;4.68;3.53;;;;;;;;;;469529;28;1677;-77
2023/03/30 00:04:02;;;;;;;4.97;3.28;;;;;;;;;;465868;28;1290;-77
2023/03/30 00:05:01;;;;;;;3.92;3.30;;;;;;;;;;464713;28;1780;-77
2023/03/30 00:05:06;;;;;;;4.80;3.42;;;;;;;;;;462713;28;1369;-77
2023/03/30 00:05:17;;;;;;;4.78;3.53;;;;;;;;;;464152;28;1359;-77
2023/03/30 00:05:41;;;;;;;5.35;3.58;;;;;;;;;;470897;28;1191;-77
2023/03/30 00:06:13;;;;;;;4.43;3.28;;;;;;;;;;470371;28;1256;-76
2023/03/30 00:06:33;;;;;;;4.38;3.53;;;;;;;;;;467030;28;1202;-77
2023/03/30 00:06:51;;;;;;;6.15;3.80;;;;;;;;;;490833;28;1155;-77
2023/03/30 00:07:26;;;;;;;6.20;3.67;;;;;;;;;;463132;28;1369;-77
2023/03/30 00:07:47;;;;;;;6.07;3.65;;;;;;;;;;461931;28;1283;-77
2023/03/30 00:08:08;;;;;;;6.05;3.72;;;;;;;;;;463994;28;1180;-77
2023/03/30 00:08:35;;;;;;;5.25;3.80;;;;;;;;;;465170;28;1151;-77
2023/03/30 00:09:21;;;;;;;5.82;3.53;;;;;;;;;;463220;28;1151;-77
2023/03/30 00:10:01;;;;;;;6.80;3.80;;;;;;;;;;464786;28;1378;-77
2023/03/30 00:10:21;;;;;;;5.00;3.60;;;;;;;;;;466649;28;2050;-77
2023/03/30 00:11:17;;;;;;;5.53;3.90;;;;;;;;;;468603;28;1291;-77
2023/03/30 00:12:53;;;;;;;6.50;4.00;;;;;;;;;;493772;28;1565;-77
2023/03/30 00:13:15;;;;;;;7.38;3.88;;;;;;;;;;465936;28;1365;-78
2023/03/30 00:13:34;;;;;;;6.00;3.70;;;;;;;;;;467381;28;1101;-77
2023/03/30 00:15:38;;;;;;;7.75;3.90;;;;;;;;;;491266;28;1281;-76
2023/03/30 00:18:39;;;;;;;6.07;3.60;;;;;;;;;;480549;29;1051;-77
2023/03/30 00:19:09;;;;;;;5.88;3.90;;;;;;;;;;456731;29;1752;-77
2023/03/30 00:19:36;;;;;;;6.75;3.78;;;;;;;;;;457534;29;1193;-77
2023/03/30 00:20:20;;;;;;;6.40;3.67;;;;;;;;;;461263;29;1749;-77
2023/03/30 00:21:29;;;;;;;6.25;3.83;;;;;;;;;;485700;28;1245;-77
2023/03/30 00:22:00;;;;;;;4.82;3.50;;;;;;;;;;451389;29;1312;-77
2023/03/30 00:22:55;;;;;;;5.43;3.33;;;;;;;;;;489023;29;920;-77
2023/03/30 00:23:21;;;;;;;5.85;3.58;;;;;;;;;;458184;29;1214;-77
2023/03/30 00:23:41;;;;;;;5.15;3.30;;;;;;;;;;453832;29;1182;-77
2023/03/30 00:24:20;;;;;;;6.57;3.40;;;;;;;;;;452920;29;1481;-77
2023/03/30 00:25:27;;;;;;;4.10;3.00;;;;;;;;;;481316;29;1270;-77
2023/03/30 00:25:42;;;;;;;5.00;3.33;;;;;;;;;;449566;29;1663;-77
2023/03/30 00:25:58;;;;;;;4.85;3.15;;;;;;;;;;453388;29;1184;-78
2023/03/30 00:26:17;;;;;;;4.45;3.30;;;;;;;;;;454206;29;1202;-77
2023/03/30 00:29:35;;;;;;;4.88;3.00;;;;;;;;;;449021;29;952;-77
2023/03/30 00:31:36;;;;;;;5.25;3.22;;;;;;;;;;471335;29;1286;-77
2023/03/30 00:31:54;;;;;;;5.80;3.17;;;;;;;;;;445506;30;993;-77
2023/03/30 00:32:30;;;;;;;6.55;3.42;;;;;;;;;;461337;30;1266;-77
2023/03/30 00:33:05;;;;;;;5.53;3.17;;;;;;;;;;437967;30;1333;-77
2023/03/30 00:35:43;;;;;;;5.68;3.42;;;;;;;;;;465004;30;1777;-77
2023/03/30 00:38:00;;;;;;;8.00;3.70;;;;;;;;;;434006;30;1236;-77
2023/03/30 00:38:20;;;;;;;6.85;3.42;;;;;;;;;;439465;30;1216;-77
2023/03/30 00:40:09;;;;;;;6.07;3.28;;;;;;;;;;445754;30;1921;-78
2023/03/30 00:42:12;;;;;;;4.47;3.17;;;;;;;;;;464432;30;985;-77
2023/03/30 00:42:54;;;;;;;7.53;3.40;;;;;;;;;;438392;30;1247;-78
2023/03/30 00:44:29;;;;;;;5.60;3.88;;;;;;;;;;464943;30;1264;-77
2023/03/30 00:48:14;;;;;;;5.82;3.30;;;;;;;;;;440011;30;1431;-77
2023/03/30 00:48:44;;;;;;;4.15;3.13;;;;;;;;;;435617;30;1638;-78
2023/03/30 00:51:26;;;;;;;5.53;3.30;;;;;;;;;;467155;30;1208;-77
2023/03/30 00:51:45;;;;;;;5.65;3.28;;;;;;;;;;440401;30;1115;-78
2023/03/30 00:52:17;;;;;;;5.15;3.20;;;;;;;;;;434359;30;1256;-78
2023/03/30 00:53:15;;;;;;;7.28;3.50;;;;;;;;;;434313;30;1603;-77
2023/03/30 00:53:46;;;;;;;;;;;;;;;;;;;;;
2023/03/30 00:54:14;;;;;;;6.88;3.58;;;;;;;;;;439145;30;1045;-77
2023/03/30 00:54:41;;;;;;;6.50;3.90;;;;;;;;;;433643;30;1137;-77
2023/03/30 00:57:06;;;;;;;7.07;3.45;;;;;;;;;;465255;30;1387;-78
2023/03/30 01:00:18;;;;;;;5.80;3.30;;;;;;;;;;495174;28;1170;-77
2023/03/30 01:00:37;;;;;;;5.13;3.30;;;;;;;;;;457505;28;1604;-77
2023/03/30 01:05:29;;;;;;;5.57;3.45;;;;;;;;;;479764;28;935;-77
2023/03/30 01:06:54;;;;;;;;;;;;;;;;;;;;;
2023/03/30 01:08:45;;;;;;;5.60;3.50;;;;;;;;;;492062;28;1184;-77
2023/03/30 01:09:34;;;;;;;7.63;3.63;;;;;;;;;;458600;29;1358;-77
2023/03/30 01:13:02;;;;;;;5.93;4.40;;;;;;;;;;450103;29;923;-77
2023/03/30 01:16:11;;;;;;;7.88;4.43;;;;;;;;;;474413;29;912;-76
2023/03/30 01:17:00;;;;;;;5.80;4.03;;;;;;;;;;450950;29;1241;-77
2023/03/30 01:19:20;;;;;;;8.25;3.97;;;;;;;;;;486082;27;21323;-77
2023/03/30 01:20:11;;;;;;;7.85;5.45;;;;;;;;;;480874;27;1680;-77
2023/03/30 01:21:04;;;;;;;7.18;4.45;;;;;;;;;;476992;28;1385;-76
2023/03/30 01:21:55;;;;;;;;;;;;;;;;;;;;;
2023/03/30 01:24:41;;;;;;;5.75;3.03;;;;;;;;;;496903;28;1598;-76
2023/03/30 01:25:01;;;;;;;8.00;3.20;;;;;;;;;;466725;28;2515;-77
2023/03/30 01:25:39;;;;;;;5.88;3.15;;;;;;;;;;469579;28;1209;-77
2023/03/30 01:25:58;;;;;;;5.68;3.45;;;;;;;;;;464900;28;1753;-77
2023/03/30 01:27:47;;;;;;;7.25;3.40;;;;;;;;;;490989;28;931;-76
2023/03/30 01:28:29;;;;;;;5.05;3.00;;;;;;;;;;474667;28;1394;-78
2023/03/30 01:31:05;;;;;;;6.20;3.00;;;;;;;;;;468903;28;1163;-76
2023/03/30 01:35:36;;;;;;;;;;;;;;;;;;;;;
2023/03/30 01:39:29;;;;;;;5.65;2.80;;;;;;;;;;461021;29;923;-77
2023/03/30 01:39:57;;;;;;;5.80;2.80;;;;;;;;;;462008;29;1243;-77
2023/03/30 01:40:49;;;;;;;5.85;2.50;;;;;;;;;;460839;29;1474;-77
2023/03/30 01:41:29;;;;;;;7.22;2.88;;;;;;;;;;456391;29;1578;-77
2023/03/30 01:42:14;;;;;;;5.47;2.90;;;;;;;;;;461002;28;1242;-77
2023/03/30 01:42:34;;;;;;;5.57;2.70;;;;;;;;;;457646;29;1206;-77
2023/03/30 01:43:00;;;;;;;4.28;2.33;;;;;;;;;;461546;28;1314;-77
2023/03/30 01:43:26;;;;;;;5.25;2.70;;;;;;;;;;464334;28;1047;-77
2023/03/30 01:43:56;;;;;;;4.68;2.50;;;;;;;;;;464751;28;1541;-77
2023/03/30 01:45:25;;;;;;;6.22;2.70;;;;;;;;;;469525;28;1936;-77
2023/03/30 01:46:31;;;;;;;5.90;2.85;;;;;;;;;;470658;28;1759;-77
2023/03/30 01:46:59;;;;;;;5.93;2.90;;;;;;;;;;465354;28;1429;-76
2023/03/30 01:47:33;;;;;;;5.72;2.70;;;;;;;;;;465075;28;1124;-76
2023/03/30 01:48:28;;;;;;;7.00;2.80;;;;;;;;;;464422;28;1150;-77
2023/03/30 01:48:47;;;;;;;5.72;2.55;;;;;;;;;;484733;28;1870;-77
2023/03/30 01:49:16;;;;;;;5.55;2.70;;;;;;;;;;463086;28;1206;-77
2023/03/30 01:49:41;;;;;;;5.75;2.63;;;;;;;;;;464810;28;1152;-77
2023/03/30 01:50:03;;;;;;;6.43;2.60;;;;;;;;;;464973;28;1208;-77
2023/03/30 01:51:47;;;;;;;4.57;2.50;;;;;;;;;;459163;29;1240;-77
2023/03/30 01:52:37;;;;;;;6.78;2.60;;;;;;;;;;454875;29;1428;-76
2023/03/30 01:53:25;;;;;;;4.82;2.58;;;;;;;;;;451996;29;1303;-77
2023/03/30 01:53:58;;;;;;;6.45;2.70;;;;;;;;;;454024;29;1243;-77
2023/03/30 01:54:30;;;;;;;6.15;2.83;;;;;;;;;;460983;28;1153;-77
2023/03/30 01:55:09;;;;;;;5.75;2.75;;;;;;;;;;460197;28;1332;-77
2023/03/30 01:55:54;;;;;;;7.20;2.70;;;;;;;;;;460177;28;1223;-77
2023/03/30 01:56:21;;;;;;;6.45;3.50;;;;;;;;;;463121;29;1426;-77
2023/03/30 01:57:48;;;;;;;8.30;2.53;;;;;;;;;;457191;28;1414;-77
2023/03/30 01:59:04;;;;;;;6.70;2.42;;;;;;;;;;467334;28;2036;-78
2023/03/30 01:59:34;;;;;;;8.43;2.78;;;;;;;;;;467792;28;1082;-76
2023/03/30 02:01:32;;;;;;;8.75;3.33;;;;;;;;;;459350;29;898;-76
2023/03/30 02:03:04;;;;;;;8.27;2.90;;;;;;;;;;493160;28;987;-76
2023/03/30 02:03:27;;;;;;;8.07;2.42;;;;;;;;;;467893;28;1250;-76
2023/03/30 02:04:53;;;;;;;8.10;2.28;;;;;;;;;;466001;28;1878;-76
2023/03/30 02:05:14;;;;;;;8.02;2.15;;;;;;;;;;462378;28;1323;-77
2023/03/30 02:05:41;;;;;;;9.25;2.47;;;;;;;;;;469390;28;1226;-77
2023/03/30 02:06:06;;;;;;;7.97;2.38;;;;;;;;;;465872;28;2592;-79
2023/03/30 02:07:01;;;;;;;;;;;;;;;;;;;;;
2023/03/30 02:07:41;;;;;;;6.07;2.10;;;;;;;;;;483194;28;1518;-78
2023/03/30 02:08:19;;;;;;;7.13;2.00;;;;;;;;;;458071;29;1274;-77
2023/03/30 02:08:58;;;;;;;7.05;2.10;;;;;;;;;;457160;29;1427;-77
2023/03/30 02:09:33;;;;;;;7.47;2.35;;;;;;;;;;456031;29;1248;-78
2023/03/30 02:11:13;;;;;;;9.82;2.45;;;;;;;;;;487642;28;1399;-77
2023/03/30 02:11:58;;;;;;;9.57;2.53;;;;;;;;;;456831;29;1629;-77
2023/03/30 02:12:28;;;;;;;8.13;2.30;;;;;;;;;;457578;28;1239;-78
2023/03/30 02:12:45;;;;;;;7.18;2.40;;;;;;;;;;465812;28;2063;-77
2023/03/30 02:13:05;;;;;;;8.45;2.33;;;;;;;;;;472240;28;1075;-77
2023/03/30 02:13:41;;;;;;;8.32;2.30;;;;;;;;;;466957;28;1059;-77
2023/03/30 02:13:57;;;;;;;9.13;2.25;;;;;;;;;;470902;28;1303;-77
2023/03/30 02:14:57;;;;;;;8.25;2.30;;;;;;;;;;466735;28;1227;-78
2023/03/30 02:15:25;;;;;;;8.40;2.40;;;;;;;;;;463063;28;1322;-78
2023/03/30 02:16:07;;;;;;;10.43;2.40;;;;;;;;;;464848;28;1621;-77
2023/03/30 02:16:54;;;;;;;10.15;2.60;;;;;;;;;;467040;28;1181;-77
2023/03/30 02:17:22;;;;;;;9.90;2.60;;;;;;;;;;466359;28;1291;-77
2023/03/30 02:18:04;;;;;;;6.68;2.40;;;;;;;;;;465380;28;1917;-77
2023/03/30 02:19:11;;;;;;;10.93;2.50;;;;;;;;;;467478;28;2174;-77
2023/03/30 02:19:31;;;;;;;8.77;2.40;;;;;;;;;;460839;28;1176;-77
2023/03/30 02:19:50;;;;;;;10.77;2.53;;;;;;;;;;462444;28;1223;-76
2023/03/30 02:20:17;;;;;;;8.73;2.38;;;;;;;;;;469589;28;1432;-77
2023/03/30 02:20:33;;;;;;;8.45;2.40;;;;;;;;;;471650;28;1156;-77
2023/03/30 02:20:55;;;;;;;6.85;2.35;;;;;;;;;;467360;28;1268;-76
2023/03/30 02:21:11;;;;;;;8.55;2.33;;;;;;;;;;467431;28;1713;-76
2023/03/30 02:21:32;;;;;;;7.63;2.53;;;;;;;;;;464554;28;1236;-77
2023/03/30 02:21:50;;;;;;;7.68;2.75;;;;;;;;;;466331;28;1092;-76
2023/03/30 02:22:18;;;;;;;8.32;2.63;;;;;;;;;;466838;28;1384;-77
2023/03/30 02:22:40;;;;;;;7.80;2.50;;;;;;;;;;467501;28;1227;-77
2023/03/30 02:23:01;;;;;;;8.88;2.75;;;;;;;;;;465398;28;1456;-77
2023/03/30 02:23:18;;;;;;;8.52;2.90;;;;;;;;;;468459;28;1602;-77
2023/03/30 02:23:37;;;;;;;9.05;2.80;;;;;;;;;;467751;28;1275;-78
2023/03/30 02:24:18;;;;;;;10.35;2.88;;;;;;;;;;468853;28;1296;-77
2023/03/30 02:24:36;;;;;;;10.18;2.67;;;;;;;;;;468668;28;1416;-77
2023/03/30 02:25:12;;;;;;;8.00;2.58;;;;;;;;;;473413;28;1128;-77
2023/03/30 02:25:41;;;;;;;9.00;2.78;;;;;;;;;;466276;28;1282;-77
2023/03/30 02:26:26;;;;;;;9.10;2.92;;;;;;;;;;476663;28;1238;-77
2023/03/30 02:26:44;;;;;;;11.10;3.17;;;;;;;;;;472820;28;1534;-77
2023/03/30 02:27:56;;;;;;;10.57;2.78;;;;;;;;;;488229;28;1359;-76
2023/03/30 02:28:11;;;;;;;11.35;2.97;;;;;;;;;;464362;28;1355;-76
2023/03/30 02:30:44;;;;;;;;;;;;;;;;;;;;;
2023/03/30 02:31:03;;;;;;;10.70;2.88;;;;;;;;;;457551;29;1121;-77
2023/03/30 02:31:32;;;;;;;10.18;2.70;;;;;;;;;;459627;29;1235;-77
2023/03/30 02:32:08;;;;;;;9.02;2.90;;;;;;;;;;472141;29;1352;-76
2023/03/30 02:32:41;;;;;;;10.18;3.03;;;;;;;;;;456221;29;1354;-76
2023/03/30 02:32:56;;;;;;;8.25;2.70;;;;;;;;;;460138;29;1271;-77
2023/03/30 02:33:26;;;;;;;9.97;2.90;;;;;;;;;;462042;29;1096;-78
2023/03/30 02:37:35;;;;;;;6.88;2.63;;;;;;;;;;462198;29;1585;-77
2023/03/30 02:37:51;;;;;;;9.25;2.47;;;;;;;;;;456638;29;1247;-77
2023/03/30 02:38:06;;;;;;;9.37;2.47;;;;;;;;;;454236;29;1292;-77
2023/03/30 02:40:57;;;;;;;7.22;2.50;;;;;;;;;;465155;29;1282;-78
2023/03/30 02:41:38;;;;;;;8.18;2.50;;;;;;;;;;448134;29;1917;-77
2023/03/30 02:42:09;;;;;;;8.88;2.70;;;;;;;;;;453137;29;1435;-78
2023/03/30 02:42:39;;;;;;;7.82;2.40;;;;;;;;;;449916;29;1292;-78
2023/03/30 02:43:13;;;;;;;8.45;2.50;;;;;;;;;;457588;29;1754;-78
2023/03/30 02:43:51;;;;;;;6.55;2.50;;;;;;;;;;457473;29;1063;-79
2023/03/30 02:44:36;;;;;;;6.03;2.50;;;;;;;;;;451056;29;1271;-77
2023/03/30 02:45:12;;;;;;;7.10;2.40;;;;;;;;;;445082;29;1539;-77
2023/03/30 02:45:30;;;;;;;8.85;2.55;;;;;;;;;;453629;29;1486;-78
2023/03/30 02:45:57;;;;;;;8.23;2.80;;;;;;;;;;453745;29;1164;-77
2023/03/30 02:46:24;;;;;;;7.03;2.67;;;;;;;;;;453818;29;1164;-77
2023/03/30 02:46:40;;;;;;;8.95;2.80;;;;;;;;;;458766;29;1068;-79
2023/03/30 02:47:18;;;;;;;7.63;2.40;;;;;;;;;;454091;29;1290;-78
2023/03/30 02:47:53;;;;;;;8.90;2.42;;;;;;;;;;458865;29;1457;-78
2023/03/30 02:48:55;;;;;;;8.10;2.60;;;;;;;;;;451251;29;1908;-78
2023/03/30 02:49:16;;;;;;;8.63;2.63;;;;;;;;;;449370;29;1297;-77
2023/03/30 02:49:46;;;;;;;7.80;2.70;;;;;;;;;;449116;29;1465;-77
2023/03/30 02:50:09;;;;;;;9.20;2.80;;;;;;;;;;477225;29;1123;-77
2023/03/30 02:50:44;;;;;;;7.05;2.70;;;;;;;;;;462556;29;1239;-77
2023/03/30 02:51:02;;;;;;;7.05;2.60;;;;;;;;;;452888;29;1752;-78
2023/03/30 02:51:33;;;;;;;7.60;2.80;;;;;;;;;;456110;29;1211;-77
2023/03/30 02:51:54;;;;;;;8.32;2.70;;;;;;;;;;455795;29;1259;-78
2023/03/30 02:52:32;;;;;;;8.57;2.85;;;;;;;;;;451803;29;1302;-77
2023/03/30 02:53:09;;;;;;;9.95;2.72;;;;;;;;;;450738;29;1188;-78
2023/03/30 02:54:00;;;;;;;9.50;2.80;;;;;;;;;;451300;29;1340;-77
2023/03/30 02:54:27;;;;;;;10.38;2.70;;;;;;;;;;451372;29;1225;-79
2023/03/30 02:55:03;;;;;;;9.30;2.58;;;;;;;;;;457628;29;1132;-77
2023/03/30 02:55:35;;;;;;;7.65;2.60;;;;;;;;;;453555;29;1159;-77
2023/03/30 02:58:06;;;;;;;8.65;2.58;;;;;;;;;;475566;29;1267;-77
2023/03/30 02:58:41;;;;;;;8.68;2.40;;;;;;;;;;449983;29;1470;-78
2023/03/30 02:59:07;;;;;;;8.10;2.65;;;;;;;;;;455388;29;1560;-78
2023/03/30 03:00:03;;;;;;;;;;;;;;;;;;;;;
2023/03/30 03:01:27;;;;;;;9.65;2.45;;;;;;;;;;473173;30;1246;-77
2023/03/30 03:01:58;;;;;;;7.05;2.50;;;;;;;;;;452526;30;1288;-78
2023/03/30 03:02:16;;;;;;;6.78;2.42;;;;;;;;;;448278;30;1121;-77
2023/03/30 03:02:40;;;;;;;7.07;2.50;;;;;;;;;;448980;30;1683;-77
2023/03/30 03:02:57;;;;;;;6.95;2.33;;;;;;;;;;449487;30;1279;-77
2023/03/30 03:03:45;;;;;;;6.32;2.40;;;;;;;;;;447730;29;1200;-78
2023/03/30 03:04:04;;;;;;;7.85;2.38;;;;;;;;;;448025;29;1217;-76
2023/03/30 03:04:42;;;;;;;7.35;2.38;;;;;;;;;;444789;29;1217;-78
2023/03/30 03:05:06;;;;;;;7.38;2.28;;;;;;;;;;448633;29;2125;-79
2023/03/30 03:05:45;;;;;;;7.38;2.20;;;;;;;;;;448696;29;1105;-77
2023/03/30 03:06:03;;;;;;;7.80;2.40;;;;;;;;;;444585;29;1637;-78
2023/03/30 03:06:19;;;;;;;7.25;2.45;;;;;;;;;;450776;29;1356;-77
2023/03/30 03:06:36;;;;;;;8.48;2.55;;;;;;;;;;452630;29;1328;-77
2023/03/30 03:06:57;;;;;;;8.05;2.50;;;;;;;;;;451160;29;1224;-77
2023/03/30 03:07:18;;;;;;;5.75;2.50;;;;;;;;;;450201;29;1262;-77
2023/03/30 03:07:34;;;;;;;5.78;2.40;;;;;;;;;;452284;29;1202;-78
2023/03/30 03:07:52;;;;;;;6.63;2.20;;;;;;;;;;453454;29;1048;-77
2023/03/30 03:08:08;;;;;;;7.15;2.13;;;;;;;;;;461592;29;1259;-78
2023/03/30 03:08:46;;;;;;;6.75;2.10;;;;;;;;;;459565;29;1178;-77
2023/03/30 03:12:09;;;;;;;6.75;2.50;;;;;;;;;;474214;29;931;-77
2023/03/30 03:12:27;;;;;;;7.45;2.50;;;;;;;;;;449051;29;1097;-78
2023/03/30 03:12:55;;;;;;;6.93;2.53;;;;;;;;;;446092;29;1357;-79
2023/03/30 03:13:35;;;;;;;5.90;2.45;;;;;;;;;;446181;29;1210;-78
2023/03/30 03:13:51;;;;;;;7.45;2.90;;;;;;;;;;444344;29;1131;-77
2023/03/30 03:14:27;;;;;;;;;;;;;;;;;;;;;
2023/03/30 03:14:44;;;;;;;6.05;2.42;;;;;;;;;;445903;29;1085;-78
2023/03/30 03:15:12;;;;;;;6.63;2.70;;;;;;;;;;443935;29;1280;-78
2023/03/30 03:16:05;;;;;;;;;;;;;;;;;;;;;
2023/03/30 03:16:38;;;;;;;7.43;2.80;;;;;;;;;;447455;29;1421;-77
2023/03/30 03:16:56;;;;;;;8.63;2.65;;;;;;;;;;448838;29;1895;-78
2023/03/30 03:17:17;;;;;;;6.93;2.60;;;;;;;;;;444131;29;1319;-78
2023/03/30 03:17:41;;;;;;;8.27;2.97;;;;;;;;;;447938;29;1135;-78
2023/03/30 03:18:16;;;;;;;;;;;;;;;;;;;;;
2023/03/30 03:18:35;;;;;;;6.22;2.70;;;;;;;;;;448225;29;902;-78
2023/03/30 03:18:57;;;;;;;6.82;2.70;;;;;;;;;;447864;29;1998;-78
2023/03/30 03:19:34;;;;;;;6.15;2.50;;;;;;;;;;469586;29;1305;-78
2023/03/30 03:19:50;;;;;;;6.57;2.60;;;;;;;;;;448093;29;1246;-78
2023/03/30 03:20:17;;;;;;;8.48;2.70;;;;;;;;;;447092;29;1361;-78
2023/03/30 03:20:41;;;;;;;9.73;2.80;;;;;;;;;;445100;29;1200;-77
2023/03/30 03:21:00;;;;;;;7.50;2.90;;;;;;;;;;448398;29;1340;-77
2023/03/30 03:21:39;;;;;;;6.78;2.70;;;;;;;;;;447016;29;1110;-77
2023/03/30 03:23:13;;;;;;;7.45;2.63;;;;;;;;;;438857;30;1441;-78
2023/03/30 03:23:51;;;;;;;8.38;2.80;;;;;;;;;;440872;30;1290;-78
2023/03/30 03:24:12;;;;;;;7.57;2.65;;;;;;;;;;448405;30;1235;-78
2023/03/30 03:24:43;;;;;;;6.53;2.58;;;;;;;;;;441965;30;1222;-77
2023/03/30 03:25:02;;;;;;;6.53;2.70;;;;;;;;;;437879;30;1622;-78
2023/03/30 03:25:18;;;;;;;7.85;2.90;;;;;;;;;;438977;30;1184;-77
2023/03/30 03:25:33;;;;;;;7.00;2.58;;;;;;;;;;439289;30;1298;-78
2023/03/30 03:25:51;;;;;;;5.28;2.30;;;;;;;;;;438092;30;1325;-78
2023/03/30 03:26:09;;;;;;;6.90;2.72;;;;;;;;;;438070;30;1208;-77
2023/03/30 03:26:25;;;;;;;6.43;2.83;;;;;;;;;;439965;30;912;-77
2023/03/30 03:27:04;;;;;;;6.45;2.75;;;;;;;;;;447802;30;1102;-78
2023/03/30 03:27:32;;;;;;;6.72;2.63;;;;;;;;;;437913;30;1256;-78
2023/03/30 03:27:53;;;;;;;6.88;2.40;;;;;;;;;;437070;30;1618;-78
2023/03/30 03:28:21;;;;;;;8.15;2.63;;;;;;;;;;439411;30;1116;-77
2023/03/30 03:28:39;;;;;;;6.22;2.50;;;;;;;;;;445272;30;1385;-78
2023/03/30 03:29:04;;;;;;;6.78;2.70;;;;;;;;;;444545;29;1627;-77
2023/03/30 03:29:25;;;;;;;5.63;2.50;;;;;;;;;;446042;29;1530;-78
2023/03/30 03:29:58;;;;;;;;;;;;;;;;;;;;;
2023/03/30 03:30:29;;;;;;;6.53;2.47;;;;;;;;;;452598;29;886;-78
2023/03/30 03:30:55;;;;;;;4.82;2.30;;;;;;;;;;448253;29;1463;-78
2023/03/30 03:31:12;;;;;;;6.90;2.72;;;;;;;;;;447098;29;1136;-78
2023/03/30 03:35:31;;;;;;;5.82;2.70;;;;;;;;;;463941;30;1278;-78
2023/03/30 03:36:24;;;;;;;7.32;2.75;;;;;;;;;;465824;30;1822;-77
2023/03/30 03:36:52;;;;;;;8.73;2.80;;;;;;;;;;441968;30;1201;-77
2023/03/30 03:37:25;;;;;;;6.45;2.70;;;;;;;;;;444631;30;1120;-77
2023/03/30 03:37:59;;;;;;;6.57;2.60;;;;;;;;;;437505;30;1159;-77
2023/03/30 03:38:17;;;;;;;8.07;2.80;;;;;;;;;;444188;30;1171;-77
2023/03/30 03:38:35;;;;;;;8.95;2.83;;;;;;;;;;442423;30;1293;-77
2023/03/30 03:38:51;;;;;;;9.13;2.88;;;;;;;;;;441843;30;2044;-77
2023/03/30 03:39:30;;;;;;;8.50;2.90;;;;;;;;;;443028;29;1263;-78
2023/03/30 03:40:15;;;;;;;6.70;2.60;;;;;;;;;;444461;30;2010;-78
2023/03/30 03:40:33;;;;;;;8.18;2.92;;;;;;;;;;436982;30;1441;-77
2023/03/30 03:40:58;;;;;;;7.75;2.75;;;;;;;;;;443813;30;1358;-78
2023/03/30 03:41:19;;;;;;;5.60;2.72;;;;;;;;;;441115;30;1698;-77
2023/03/30 03:41:40;;;;;;;6.32;2.60;;;;;;;;;;441037;30;1667;-78
2023/03/30 03:42:16;;;;;;;8.20;2.80;;;;;;;;;;443365;30;1460;-77
2023/03/30 03:42:38;;;;;;;6.55;2.60;;;;;;;;;;445760;29;1278;-77
2023/03/30 03:43:35;;;;;;;7.07;2.90;;;;;;;;;;444646;29;1368;-77
2023/03/30 03:44:14;;;;;;;6.97;2.42;;;;;;;;;;444833;29;2008;-77
2023/03/30 03:44:49;;;;;;;5.72;2.22;;;;;;;;;;448643;29;2010;-78
2023/03/30 03:45:06;;;;;;;5.10;2.10;;;;;;;;;;453520;29;1466;-77
2023/03/30 03:45:31;;;;;;;4.68;2.35;;;;;;;;;;451968;29;1247;-77
2023/03/30 03:45:47;;;;;;;5.75;2.33;;;;;;;;;;450988;29;1130;-77
2023/03/30 03:46:09;;;;;;;7.18;2.58;;;;;;;;;;452476;29;1672;-77
2023/03/30 03:46:27;;;;;;;7.57;2.80;;;;;;;;;;454837;29;1220;-77
2023/03/30 03:47:24;;;;;;;7.25;2.90;;;;;;;;;;451177;29;1215;-78
2023/03/30 03:47:25;;;;;;;8.88;3.00;;;;;;;;;;451156;29;1135;-79
2023/03/30 03:47:49;;;;;;;6.85;2.90;;;;;;;;;;446614;29;1723;-79
2023/03/30 03:48:05;;;;;;;6.55;2.78;;;;;;;;;;450548;29;1209;-77
2023/03/30 03:48:21;;;;;;;5.47;2.60;;;;;;;;;;448811;29;1175;-78
2023/03/30 03:48:45;;;;;;;5.78;2.60;;;;;;;;;;454230;29;1275;-77
2023/03/30 03:49:04;;;;;;;8.05;2.80;;;;;;;;;;456508;29;1073;-77
2023/03/30 03:49:19;;;;;;;8.73;2.85;;;;;;;;;;459470;28;1137;-77
2023/03/30 03:49:47;;;;;;;8.27;2.97;;;;;;;;;;467088;28;1183;-77
2023/03/30 03:50:10;;;;;;;7.00;2.80;;;;;;;;;;466120;28;1278;-78
2023/03/30 03:50:32;;;;;;;8.52;2.80;;;;;;;;;;467167;28;927;-78
2023/03/30 03:50:57;;;;;;;8.68;2.60;;;;;;;;;;465866;28;1105;-78
2023/03/30 03:51:46;;;;;;;6.50;2.72;;;;;;;;;;471560;28;1234;-78
2023/03/30 03:52:12;;;;;;;5.88;2.58;;;;;;;;;;463394;28;1215;-77
2023/03/30 03:52:31;;;;;;;8.60;2.85;;;;;;;;;;467538;28;1253;-78
2023/03/30 03:52:55;;;;;;;8.27;2.97;;;;;;;;;;465627;28;1259;-78
2023/03/30 03:53:28;;;;;;;6.90;2.55;;;;;;;;;;465026;28;1123;-78
2023/03/30 03:53:48;;;;;;;9.18;3.00;;;;;;;;;;467022;28;1382;-78
2023/03/30 03:54:10;;;;;;;8.75;2.88;;;;;;;;;;463637;28;1189;-77
2023/03/30 03:54:28;;;;;;;7.20;2.70;;;;;;;;;;465508;28;1111;-77
2023/03/30 03:54:47;;;;;;;7.25;2.90;;;;;;;;;;469516;28;914;-78
2023/03/30 03:55:08;;;;;;;6.47;2.70;;;;;;;;;;468325;28;1253;-77
2023/03/30 03:55:24;;;;;;;6.88;2.63;;;;;;;;;;468436;28;1395;-77
2023/03/30 03:55:42;;;;;;;8.40;2.77;;;;;;;;;;469567;28;1066;-77
2023/03/30 03:56:15;;;;;;;9.15;2.90;;;;;;;;;;469486;28;1410;-78
2023/03/30 03:56:53;;;;;;;7.03;2.70;;;;;;;;;;465565;28;1091;-78
2023/03/30 03:57:29;;;;;;;9.20;3.22;;;;;;;;;;459099;28;1257;-78
2023/03/30 03:57:59;;;;;;;6.03;2.60;;;;;;;;;;460965;28;1604;-78
2023/03/30 03:58:15;;;;;;;5.95;2.80;;;;;;;;;;462707;28;1490;-78
2023/03/30 03:58:36;;;;;;;6.43;2.78;;;;;;;;;;468311;28;1266;-78
2023/03/30 03:59:04;;;;;;;6.32;2.90;;;;;;;;;;467202;28;1942;-77
2023/03/30 03:59:20;;;;;;;7.20;2.78;;;;;;;;;;471681;28;1199;-77
2023/03/30 03:59:38;;;;;;;6.82;2.80;;;;;;;;;;472282;28;1094;-78
2023/03/30 03:59:57;;;;;;;7.25;3.00;;;;;;;;;;466392;28;1126;-78
2023/03/30 04:00:19;;;;;;;8.43;3.05;;;;;;;;;;468684;28;1579;-77
2023/03/30 04:00:47;;;;;;;7.18;2.70;;;;;;;;;;467144;28;1220;-77
2023/03/30 04:01:02;;;;;;;7.85;2.65;;;;;;;;;;462185;28;1177;-78
2023/03/30 04:02:29;;;;;;;8.45;2.95;;;;;;;;;;466728;28;1285;-78
2023/03/30 04:02:47;;;;;;;8.32;2.80;;;;;;;;;;460421;28;1491;-78
2023/03/30 04:03:13;;;;;;;6.95;2.80;;;;;;;;;;464278;28;1180;-78
2023/03/30 04:04:13;;;;;;;7.05;3.00;;;;;;;;;;466100;28;1293;-78
2023/03/30 04:04:37;;;;;;;8.05;3.00;;;;;;;;;;464435;28;1181;-77
2023/03/30 04:05:15;;;;;;;;;;;;;;;;;;;;;
2023/03/30 04:05:31;;;;;;;7.65;2.80;;;;;;;;;;474434;28;1119;-77
2023/03/30 04:05:54;;;;;;;7.17;2.70;;;;;;;;;;465675;28;1425;-77
2023/03/30 04:06:25;;;;;;;6.53;2.50;;;;;;;;;;469380;28;1127;-77
2023/03/30 04:07:01;;;;;;;6.93;2.60;;;;;;;;;;470412;28;1300;-77
2023/03/30 04:08:24;;;;;;;6.15;2.10;;;;;;;;;;461865;29;1303;-78
2023/03/30 04:09:01;;;;;;;7.00;2.35;;;;;;;;;;465134;28;1441;-78
2023/03/30 04:09:25;;;;;;;6.97;2.40;;;;;;;;;;468807;28;1324;-77
2023/03/30 04:10:22;;;;;;;6.60;2.40;;;;;;;;;;468877;28;1324;-78
2023/03/30 04:11:02;;;;;;;7.60;2.47;;;;;;;;;;471401;28;1248;-78
2023/03/30 04:11:23;;;;;;;6.22;2.55;;;;;;;;;;464775;28;1048;-77
2023/03/30 04:11:41;;;;;;;6.10;2.70;;;;;;;;;;466553;28;1086;-77
2023/03/30 04:12:08;;;;;;;5.90;2.67;;;;;;;;;;467590;28;1229;-78
2023/03/30 04:12:23;;;;;;;6.60;2.60;;;;;;;;;;473096;28;1230;-77
2023/03/30 04:12:49;;;;;;;7.97;2.40;;;;;;;;;;475729;28;1219;-78
2023/03/30 04:13:10;;;;;;;8.57;2.35;;;;;;;;;;468775;28;1246;-77
2023/03/30 04:13:25;;;;;;;10.38;2.60;;;;;;;;;;480916;28;1187;-78
2023/03/30 04:13:47;;;;;;;8.53;2.80;;;;;;;;;;471607;28;1017;-78
2023/03/30 04:14:11;;;;;;;6.18;2.40;;;;;;;;;;470553;28;1203;-78
2023/03/30 04:14:27;;;;;;;6.25;2.40;;;;;;;;;;476176;28;1211;-77
2023/03/30 04:14:51;;;;;;;8.27;2.60;;;;;;;;;;475222;28;1124;-78
2023/03/30 04:15:14;;;;;;;5.90;2.45;;;;;;;;;;470205;28;1138;-78
2023/03/30 04:15:35;;;;;;;4.57;2.05;;;;;;;;;;469192;28;1631;-77
2023/03/30 04:15:59;;;;;;;5.43;2.17;;;;;;;;;;468169;28;1080;-78
2023/03/30 04:16:18;;;;;;;5.50;2.10;;;;;;;;;;471917;28;1292;-78
2023/03/30 04:16:56;;;;;;;5.70;2.20;;;;;;;;;;476001;28;1355;-78
2023/03/30 04:17:14;;;;;;;5.25;2.00;;;;;;;;;;472054;28;1147;-78
2023/03/30 04:17:33;;;;;;;5.38;2.20;;;;;;;;;;473199;28;1189;-78
2023/03/30 04:17:57;;;;;;;7.65;2.78;;;;;;;;;;467472;28;2292;-79
2023/03/30 04:18:14;;;;;;;6.65;2.70;;;;;;;;;;471973;28;1031;-78
2023/03/30 04:18:38;;;;;;;7.20;2.53;;;;;;;;;;470651;28;1094;-78
2023/03/30 04:19:46;;;;;;;7.22;2.65;;;;;;;;;;468842;28;1355;-78
2023/03/30 04:19:52;;;;;;;6.68;2.55;;;;;;;;;;468191;28;2131;-78
2023/03/30 04:20:03;;;;;;;7.25;2.60;;;;;;;;;;469963;28;1303;-77
2023/03/30 04:23:00;;;;;;;5.20;2.30;;;;;;;;;;493894;28;1353;-77
2023/03/30 04:23:20;;;;;;;6.25;2.53;;;;;;;;;;464793;28;1377;-77
2023/03/30 04:23:36;;;;;;;6.78;2.60;;;;;;;;;;464009;28;1230;-78
2023/03/30 04:25:04;;;;;;;7.75;2.75;;;;;;;;;;479598;29;1804;-77
2023/03/30 04:25:20;;;;;;;7.45;2.88;;;;;;;;;;456680;29;1213;-77
2023/03/30 04:25:38;;;;;;;6.65;2.63;;;;;;;;;;461329;28;1309;-77
2023/03/30 04:27:24;;;;;;;7.72;2.85;;;;;;;;;;478871;29;1271;-77
2023/03/30 04:27:46;;;;;;;6.95;2.58;;;;;;;;;;458138;28;1301;-77
2023/03/30 04:29:39;;;;;;;7.05;2.78;;;;;;;;;;483780;29;1422;-77
2023/03/30 04:30:57;;;;;;;9.38;3.10;;;;;;;;;;465675;28;954;-77
2023/03/30 04:31:15;;;;;;;8.82;3.10;;;;;;;;;;465606;28;1082;-78
2023/03/30 04:31:34;;;;;;;8.38;3.20;;;;;;;;;;469988;28;1394;-77
2023/03/30 04:31:53;;;;;;;7.30;3.00;;;;;;;;;;466373;28;1353;-77
2023/03/30 04:32:09;;;;;;;8.52;3.00;;;;;;;;;;463280;28;1241;-78
2023/03/30 04:32:33;;;;;;;7.93;3.00;;;;;;;;;;470991;28;1280;-79